Chicago, IL (60643)

6:42 PM CDT on May 22, 2015 (GMT -0500)
Morgan Park | | Change Station
CLOSE
Current Station
Personal Weather Station
Location: Chicago, IL
Elevation: 616 ft
Nearby Weather Stations

Elev 616 ft 41.69 °N, 87.69 °W | Updated 20 seconds ago

Partly Cloudy
Partly Cloudy
56.3 °F
Feels Like 56.3 °F
N
4.0
Wind Variable Wind from ENE
Gusts 7.0 mph

Today
High -- | Low -- °F
--% Chance of Precip.
Yesterday
High -- | Low -- °F
Precip. -- in
5:24 AM 8:10 PM
Waxing Crescent, 25% visible
Pressure 30.27 in
Visibility 10.0 miles
Clouds Mostly Cloudy 22000 ft
Dew Point 34 °F
Humidity 42%
Rainfall 0.00 in
Snow Depth Not available.
UV 0.0 out of 12
Pollen 8.00 out of 12
Air Quality Not available.
Flu Activity Sporadic
METAR KMDW 222253Z 07012KT 10SM BKN220 14/M01 A3026 RMK AO2 SLP249 T01441011

More Conditions Fewer Conditions

Pressure 30.27 in
Visibility 10.0 miles
Clouds Mostly Cloudy 22000 ft
Dew Point 34 °F
Humidity 42%
Rainfall 0.00 in
Snow Depth Not available.
UV 0.0 out of 12
Pollen 8.00 out of 12
Air Quality Not available.
Flu Activity Sporadic
METAR KMDW 222253Z 07012KT 10SM BKN220 14/M01 A3026 RMK AO2 SLP249 T01441011

More Conditions Fewer Conditions

10-Day Weather Forecast

Almanac

Astronomy

May. 22, 2015 Rise Set
Actual Time
Civil Twilight
Nautical Twilight
Astronomical Twilight
Moon
Length of Visible Light
Length of Day
Tomorrow will be .
, % of the Moon is Illuminated

Today's Extremes

State Highs State Lows

Community

WunderPhotos

Upload Photos

1,823,335 photos uploaded!

WunderBlogs® & News

Nearby

Air Quality

  Air Quality AQ Index Pollutant
Not available.

Snow Depth

Station Depth Elevation

Earthquake Activity

City Distance Mag. Time & Date
Minimum magnitude displayed is 2.5.

Coastal Water Temperatures

Place Temperature

Stations

Nearby Weather Stations

Station Location Temp. Windchill Dew Point Humidity Wind Precip. Elev Updated Type